Tiempo atmosférico en la estación meteorológica de Ceuta, Ceuta (87 m.)



Fecha
DESCASC
Temp. máxima en grados centígrados (hora)
DESCASC
Temp. mínima en grados centígrados (hora)
DESCASC
Temp. media en grados centígrados
DESCASC
Racha de viento máxima en m/sg (hora)
DESCASC
Velocidad máxima media en intervalos de 10 minutos(hora)
DESCASC
Precipitaciones diarias en mm
DESCASC
Precipitaciones de 00:00 a 06:00 en mm
DESCASC
Precipitaciones de 06:00 a 12:00 en mm
DESCASC
Precipitaciones de 12:00 a 18:00 en mm
DESCASC
Precipitaciones de 18:00 a 24:00 en mm
DESCASC
14-10-2018 21 (00:20) 16.4 (11:40) 18.7 14.72 (13:40) 7.22 (10:40) 2.2 0 2 0.2 0
13-10-2018 24.4 (16:40) 19.6 (06:00) 22 7.78 (13:00) 4.44 (13:10) 0 0 0 0 0
12-10-2018 24.7 (13:10) 19.1 (08:20) 21.9 5.83 (18:20) 3.61 (18:20) 0 0 0 0 0
11-10-2018 26.2 (16:40) 19.4 (08:30) 22.8 11.39 (10:10) 5 (10:10) 12.2 2 10.2 0 0
10-10-2018 24.1 (13:20) 18.1 (06:10) 21.1 5 (05:10) 3.33 (05:10) 0 0 0 0 0
08-10-2018 28.3 (15:20) 19 (23:59) 23.6 10.83 (08:30) 6.11 (08:30) 0 0 0 0 0
07-10-2018 30.8 (14:40) 18.7 (05:40) 24.8 9.72 (21:10) 4.44 (21:10) 0 0 0 0 0
06-10-2018 25 (13:20) 19.7 (08:10) 22.4 6.39 (14:20) 4.17 (19:10) 0 0 0 0 0
05-10-2018 25.4 (14:00) 20.2 (04:10) 22.8 9.17 (12:10) 5.83 (14:10) 0 0 0 0 0
04-10-2018 25.3 (14:20) 18.8 (00:00) 22 8.61 (11:30) 5.83 (15:10) 0 0 0 0 0
03-10-2018 25.2 (14:20) 19.7 (00:00) 22.5 9.17 (12:10) 5.83 (12:10) 0 0 0 0 0
02-10-2018 23.8 (13:00) 19.6 (00:00) 21.7 5.83 (13:30) 3.61 (14:50) 0 0 0 0 0
01-10-2018 30.7 (16:50) 20.5 (00:00) 25.6 8.06 (10:40) 4.44 (05:40) 0.2 0.2 0 0 0
30-09-2018 23.5 (10:50) 20.1 (00:00) 21.8 5.56 (12:30) 3.61 (19:50) 0 0 0 0 0
29-09-2018 25.7 (14:30) 20.4 (00:00) 23.1 6.94 (14:50) 4.44 (12:50) 0 0 0 0 0
28-09-2018 25.2 (14:00) 20.7 (00:00) 23 9.72 (01:00) 6.11 (01:50) 0 0 0 0 0
27-09-2018 23.9 (13:20) 21.5 (00:00) 22.7 12.22 (15:00) 6.67 (13:50) 0 0 0 0 0
26-09-2018 27.3 (15:30) 22.4 (00:00) 24.8 10.28 (11:00) 6.67 (11:30) 0 0 0 0 0
25-09-2018 27.2 (15:40) 22 (00:00) 24.6 7.5 (18:30) 5 (18:10) 0 0 0 0 0
24-09-2018 27.6 (17:20) 22.1 (00:00) 24.9 5.83 (14:10) 3.61 (13:20) 0 0 0 0 0
23-09-2018 25.5 (14:30) 21.5 (06:40) 23.5 6.39 (08:50) 3.89 (12:30) 0 0 0 0 0
22-09-2018 26.6 (12:50) 21.3 (08:50) 23.9 8.06 (13:40) 5.28 (13:50) 0 0 0 0 0
21-09-2018 27 (15:00) 22.5 (08:30) 24.8 5.56 (15:10) 3.89 (15:00) 0 0 0 0 0
20-09-2018 27.1 (14:10) 22.4 (05:30) 24.8 6.67 (16:30) 4.44 (16:10) 0 0 0 0 0
19-09-2018 27.3 (16:20) 21.5 (04:20) 24.4 5 (16:50) 3.33 (16:50) 0 0 0 0 0
18-09-2018 26.6 (16:20) 21.4 (08:30) 24 5 (17:30) 3.61 (17:30) 0 0 0 0 0
17-09-2018 25.6 (16:10) 21.7 (05:50) 23.7 7.78 (01:30) 4.44 (01:20) 0 0 0 0 0
16-09-2018 25.6 (15:10) 21.4 (00:00) 23.5 8.61 (15:20) 5.28 (16:30) 0 0 0 0 0
15-09-2018 26 (15:10) 20.9 (00:00) 23.4 5.83 (19:20) 3.61 (19:10) 0 0 0 0 0

Gráficas

Temp. máximas Temp. mínimas Temp. medias Precipitaciones Rachas de viento máximas Velocidades máximas media en intervalos de 10 minutos

Datos horarios

Fecha y hora oficial Temperatura (ºC) Velocidad del viento (km/h) Dirección del viento Racha (km/h) Dirección de racha Precipitación (mm) Presión (hPa) Tendencia (hPa) Humedad (%)
2018-10-14 23:00:00 18.3 10 Oeste 38 Noroeste 0 1004.8 1.3 53
2018-10-14 22:00:00 18.1 10 Oeste 33 Noroeste 0 1004.4 1.4 56
2018-10-14 21:00:00 17.9 6 Oeste 32 Noroeste 0 1004.1 1.4 60
2018-10-14 20:00:00 17.9 9 Oeste 28 Noroeste 0 1003.5 0.3 59
2018-10-14 19:00:00 18.7 10 Noroeste 36 Sudoeste 0 1003 -0.3 55
2018-10-14 18:00:00 19.9 14 Oeste 30 Oeste 0 1002.7 -0.3 49
2018-10-14 17:00:00 20.2 13 Oeste 29 Noroeste 0 1003.2 -0.1 55
2018-10-14 16:00:00 20.3 12 Oeste 41 Noroeste 0 1003.3 0 49
2018-10-14 15:00:00 20.2 10 Oeste 46 Noroeste 0 1003 -0.6 61
2018-10-14 14:00:00 20 12 Noroeste 53 Noroeste 0 1003.3 0.4 70
2018-10-14 13:00:00 17.6 23 Noroeste 41 Noroeste 0.2 1003.3 1.1 87
2018-10-14 12:00:00 16.5 19 Noroeste 44 Noroeste 0.6 1003.6 2.3 93
2018-10-14 11:00:00 17.1 22 Noroeste 50 Noroeste 0.2 1002.9 2 92
2018-10-14 10:00:00 17.8 21 Noroeste 46 Noroeste 0.2 1002.2 1.1 92
2018-10-14 09:00:00 19.2 22 Noroeste 44 Noroeste 0.2 1001.3 -0.6 95
2018-10-14 08:00:00 20.2 5 Oeste 14 Oeste 0.8 1000.9 -1.4 98
2018-10-14 07:00:00 20.1 6 Sur 11 Sur 0 1001.1 -1.1 100
2018-10-14 06:00:00 20.2 5 Sur 11 Sur 0 1001.9 -0.7 95
2018-10-14 05:00:00 20.4 0 Calma 11 Sur 0 1002.3 -0.7 100
2018-10-14 04:00:00 20.5 6 Sudeste 13 Sudeste 0 1002.2 -1.8 100
2018-10-14 03:00:00 20.7 3 Sudeste 11 Este 0 1002.6 -1.3 98
2018-10-14 02:00:00 20.7 2 Oeste 13 Este 0 1003 -1.4 99
2018-10-14 01:00:00 20.8 5 Nordeste 15 Este 0 1004 -0.5 99
2018-10-14 00:00:00 20.9 8 Este 14 Sudeste 0 1003.9 -0.7 99
2018-10-13 23:00:00 20.6 5 Sudeste 16 Sudeste 0 1004.4 -0.2 100
2018-10-13 22:00:00 20.7 9 Sudeste 18 Sudeste 0 1004.5 -0.2 100
2018-10-13 21:00:00 20.7 9 Sudeste 15 Este 0 1004.6 -0.5 99
2018-10-13 20:00:00 21.1 9 Sudeste 19 Este 0 1004.6 -0.6 95
2018-10-13 19:00:00 21.8 12 Este 18 Sudeste 0 1004.7 -0.9 88
2018-10-13 18:00:00 23 10 Este 19 Este 0 1005.1 -1.2 81
2018-10-13 17:00:00 23.9 12 Este 23 Este 0 1005.2 -2 80
2018-10-13 16:00:00 23.9 13 Este 25 Este 0 1005.6 -2.3 79
2018-10-13 15:00:00 23.3 15 Este 22 Sudeste 0 1006.3 -2.1 81
2018-10-13 14:00:00 23 12 Este 26 Este 0 1007.2 -1.3 82
2018-10-13 13:00:00 22.1 16 Este 28 Este 0 1007.9 -0.4 90
2018-10-13 12:00:00 22.1 14 Este 21 Este 0 1008.4 0.4 82
2018-10-13 11:00:00 21.6 11 Este 19 Este 0 1008.5 0.6 87
2018-10-13 10:00:00 21.1 9 Este 18 Este 0 1008.3 0.3 94
2018-10-13 09:00:00 20.3 11 Este 18 Este 0 1008 -0.1 99
2018-10-13 08:00:00 20.2 9 Este 18 Este 0 1007.9 -0.7 100
2018-10-13 07:00:00 20.1 6 Este 17 Este 0 1008 -1.2 99
2018-10-13 06:00:00 19.6 9 Este 15 Este 0 1008.1 -1.4 100
2018-10-13 05:00:00 19.9 10 Sudeste 19 Sudeste 0 1008.6 -1.1 100
2018-10-13 04:00:00 19.9 8 Sudeste 15 Sudeste 0 1009.2 -0.7 100
2018-10-13 03:00:00 20 9 Sudeste 19 Sudeste 0 1009.5 -1 100
2018-10-13 02:00:00 20.2 9 Sudeste 15 Este 0 1009.7 -0.9 100
2018-10-13 01:00:00 20.4 7 Sudeste 14 Sudeste 0 1009.9 -0.8 100
2018-10-13 00:00:00 20.4 5 Sudeste 8 Este 0 1010.5 -0.4 98
2018-10-12 23:00:00 20.5 4 Sudoeste 12 Sudoeste 0 1010.6 -0.1 96
2018-10-12 22:00:00 20.7 5 Sudoeste 12 Sudoeste 0 1010.7 0.4 93
2018-10-12 21:00:00 21.1 7 Sudoeste 13 Sudoeste 0 1010.9 0.6 91
2018-10-12 20:00:00 21.6 8 Sur 17 Sur 0 1010.7 0 90
2018-10-12 19:00:00 22.4 11 Sur 21 Sudoeste 0 1010.3 -0.7 85
2018-10-12 18:00:00 23 12 Sur 19 Sur 0 1010.3 -1.2 82
2018-10-12 17:00:00 23.5 12 Sur 19 Sur 0 1010.7 -1.2 77
2018-10-12 16:00:00 23.7 9 Sudeste 16 Sur 0 1011 -1.2 74
2018-10-12 15:00:00 24.3 9 Sudeste 16 Sudeste 0 1011.5 -0.7 68
2018-10-12 14:00:00 24.4 8 Sur 16 Sur 0 1011.9 -0.2 66
2018-10-12 13:00:00 24.3 8 Este 17 Sudeste 0 1012.2 0.8 69
2018-10-12 12:00:00 22.1 8 Nordeste 13 Nordeste 0 1012.2 1.6 84
2018-10-12 11:00:00 22 7 Nordeste 11 Este 0 1012.1 2.1 83
2018-10-12 10:00:00 21.1 4 Norte 7 Nordeste 0 1011.4 1.8 86
2018-10-12 09:00:00 19.7 3 Sudoeste 6 Sudoeste 0 1010.6 1.2 90
2018-10-12 08:00:00 19.3 3 Sudoeste 5 Sudoeste 0 1010 0.9 89
2018-10-12 07:00:00 19.8 4 Sudoeste 7 Sudoeste 0 1009.6 0.2 87
2018-10-12 06:00:00 19.8 5 Sudoeste 8 Sudoeste 0 1009.4 -0.1 84
2018-10-12 05:00:00 19.7 7 Sudoeste 9 Sudoeste 0 1009.1 -0.5 81
2018-10-12 04:00:00 19.6 5 Sudoeste 9 Sudoeste 0 1009.4 -0.3 85
2018-10-12 03:00:00 19.6 5 Sudoeste 11 Sur 0 1009.5 0 85
2018-10-12 02:00:00 20 6 Sur 10 Sur 0 1009.6 0.5 83
2018-10-12 01:00:00 20.2 5 Sur 9 Sur 0 1009.7 1.3 83
2018-10-12 00:00:00 21.3 5 Sudoeste 13 Oeste 0 1009.5 1.9 77
2018-10-11 23:00:00 21.5 5 Sudoeste 15 Noroeste 0 1009.1 2 74
2018-10-11 22:00:00 21.8 7 Oeste 25 Oeste 0 1008.4 2 71
2018-10-11 21:00:00 22.2 14 Oeste 37 Oeste 0 1007.6 1.8 67
2018-10-11 20:00:00 22.6 9 Oeste 36 Oeste 0 1007.1 1.6 67
2018-10-11 19:00:00 23.9 11 Oeste 29 Oeste 0 1006.4 1.1 62
2018-10-11 18:00:00 25.8 6 Oeste 28 Noroeste 0 1005.8 0.3 56
2018-10-11 17:00:00 25.9 11 Oeste 30 Noroeste 0 1005.5 -0.2 56
2018-10-11 16:00:00 25.7 12 Oeste 28 Oeste 0 1005.3 -0.7 58
2018-10-11 15:00:00 25.3 9 Oeste 28 Sudoeste 0 1005.5 0.1 62
2018-10-11 14:00:00 24.6 11 Oeste 35 Oeste 0 1005.7 0.8 66
2018-10-11 13:00:00 23.8 11 Oeste 30 Noroeste 0 1006 2.1 67
2018-10-11 12:00:00 22.5 12 Oeste 37 Oeste 0 1005.4 2.9 75
2018-10-11 11:00:00 21.1 13 Noroeste 41 Oeste 0.4 1004.9 3.4 84
2018-10-11 10:00:00 19.7 11 Sudoeste 32 Oeste 7.6 1003.9 2.7 100
2018-10-11 09:00:00 19.5 6 Sudoeste 12 Sur 1.6 1002.5 1.6 97
2018-10-11 08:00:00 19.5 3 Sudoeste 9 Sudoeste 0.6 1001.5 0.4 97
2018-10-11 07:00:00 19.5 3 Sudoeste 8 Sudoeste 0 1001.2 0.3 97
2018-10-11 06:00:00 19.7 5 Sudoeste 12 Oeste 2 1000.9 -0.5 96
2018-10-11 05:00:00 20.1 5 Sur 11 Sudeste 0 1001.1 -0.1 89
2018-10-11 04:00:00 20.1 4 Oeste 7 Noroeste 0 1000.9 -0.3 91
2018-10-11 03:00:00 20.4 4 Norte 6 Sur 0 1001.4 0.6 84
2018-10-11 02:00:00 21.1 4 Sur 8 Sur 0 1001.2 0.7 74
2018-10-11 01:00:00 21.7 5 Sudoeste 10 Oeste 0 1001.2 1.4 70
2018-10-11 00:00:00 21.5 6 Sudoeste 12 Sudoeste 0 1000.8 1.3 71
2018-10-10 23:00:00 21.7 6 Sudoeste 13 Sudoeste 0 1000.5 1.3 72
2018-10-10 22:00:00 21.3 6 Sudoeste 10 Sudoeste 0 999.8 0.9 79
2018-10-10 21:00:00 21.7 5 Sur 11 Sur 0 999.5 1.3 78
2018-10-10 20:00:00 21.6 6 Sur 13 Sur 0 999.2 1.2 80
2018-10-10 19:00:00 21.9 8 Sur 12 Sur 0 998.9 0.9 79
2018-10-10 18:00:00 22.6 6 Sur 16 Sudeste 0 998.2 0.3 76
2018-10-10 17:00:00 23.2 8 Nordeste 15 Nordeste 0 998 -0.2 72
2018-10-10 16:00:00 22.7 9 Nordeste 15 Nordeste 0 998 -0.2 78
2018-10-10 15:00:00 22.3 7 Nordeste 15 Nordeste 0 997.9 -0.6 74
2018-10-10 14:00:00 22.1 8 Norte 17 Nordeste 0 998.2 0 78
2018-10-10 13:00:00 22 9 Nordeste 15 Este 0 998.2 0.2 82
2018-10-10 12:00:00 21.4 -- -- 13 Norte 0 998.5 0.7 84
2018-10-10 11:00:00 21.5 6 Nordeste 10 Nordeste 0 998.2 1.2 82
2018-10-10 10:00:00 20 5 Norte 9 Norte 0 998 0.8 89
2018-10-10 09:00:00 18.8 8 Norte 12 Norte 0 997.8 1.3 98
2018-10-10 08:00:00 18.7 5 Norte 17 Norte 0 997 0.1 97
2018-10-10 07:00:00 18.4 10 Norte 15 Norte 0 997.2 -0.4 95
2018-10-10 06:00:00 18.3 5 Norte 18 Norte 0 996.5 -1.2 95
2018-10-10 05:00:00 19.7 8 Noroeste 13 Noroeste 0 996.9 -0.9 90
2018-10-10 04:00:00 19.6 5 Oeste 7 Sudoeste 0 997.6 -0.5 88
2018-10-10 03:00:00 20.2 4 Sur 13 Sur 0 997.7 -0.7 86
2018-10-10 02:00:00 20.5 5 Sudoeste 10 Sudoeste 0 997.8 -0.6 90
2018-10-10 01:00:00 20.2 4 Sudoeste 13 Sudeste 0 998.1 -0.4 94
2018-10-10 00:00:00 20.3 8 Sudeste 17 Sudeste 0 998.4 -0.3 92
2018-10-09 23:00:00 20.1 6 Este 15 Sudeste 0 998.4 0.2 93
2018-10-09 22:00:00 20.6 6 Sur 13 Sur 0 998.5 0.3 93
2018-10-09 21:00:00 20.9 8 Sudeste 15 Sudeste 0 998.7 0.4 91
2018-10-09 20:00:00 20.9 8 Sudeste 18 Este 0 998.2 -0.5 89
2018-10-09 19:00:00 21.7 10 Sudeste 24 Este 0 998.2 -0.2 87
2018-10-09 18:00:00 22.2 13 Este 23 Este 0 998.3 -0.4 85
2018-10-09 17:00:00 21.6 11 Nordeste 22 Este 0 998.7 -0.5 87
2018-10-09 16:00:00 24.1 14 Este 24 Este 0 998.4 -1.3 74
2018-10-09 15:00:00 24.1 12 Este 26 Este 0 998.7 -1.1 75
2018-10-09 14:00:00 22.8 9 Nordeste 16 Este 0 999.2 -0.6 81
2018-10-09 13:00:00 22.2 9 Norte 15 Norte 0 999.7 0.1 86
2018-10-09 12:00:00 23.7 6 Sudeste 15 Sur 0 999.8 0.5 77
2018-10-09 11:00:00 22.1 8 Sur 14 Sur 0 999.8 0.4 86
2018-10-09 10:00:00 21 5 Sur 9 Sur 0 999.6 0.4 93
2018-10-09 09:00:00 19.8 4 Sur 7 Sur 0 999.3 0.2 98
2018-10-09 08:00:00 19.5 3 Sur 8 Nordeste 0 999.4 0.1 96
2018-10-09 07:00:00 19 3 Noroeste 6 Noroeste 0 999.2 -1.1 96
2018-10-09 06:00:00 18.6 3 Noroeste 5 Oeste 0 999.1 -2.1 88
2018-10-09 05:00:00 19.2 5 Sudoeste 8 Oeste 0 999.3 -2.4 83
2018-10-09 04:00:00 19.2 2 Sudoeste 8 Oeste 0 1000.3 -1.8 82
2018-10-09 03:00:00 19.3 5 Oeste 8 Sudoeste 0 1001.2 -1.1 77
2018-10-09 02:00:00 19.4 6 Sudoeste 10 Oeste 0 1001.7 -0.5 76
2018-10-09 01:00:00 18.5 3 Norte 7 Norte 0 1002.1 -0.1 83
2018-10-09 00:00:00 19 5 Noroeste 9 Norte 0 1002.3 0 77
2018-10-08 23:00:00 20.6 4 Norte 8 Sudoeste 0 1002.2 -0.3 67
2018-10-08 22:00:00 20.7 6 Sudoeste 10 Sur 0 1002.2 -0.4 65
2018-10-08 21:00:00 21.1 4 Sur 9 Sur 0 1002.3 -0.2 87
2018-10-08 20:00:00 21.6 3 Este 14 Sur 0 1002.5 -0.2 85
2018-10-08 19:00:00 23 10 Sur 17 Sur 0 1002.6 -0.3 65
2018-10-08 18:00:00 27.5 7 Sudoeste 17 Oeste 0 1002.5 -0.8 45
2018-10-08 17:00:00 27.7 9 Oeste 25 Oeste 0 1002.7 -1.5 40
2018-10-08 16:00:00 27.5 9 Noroeste 19 Sudoeste 0 1002.9 -1.8 46
2018-10-08 15:00:00 27.8 9 Noroeste 31 Oeste 0 1003.3 -1.6 43
2018-10-08 14:00:00 27.4 11 Noroeste 22 Oeste 0 1004.2 -0.8 44
2018-10-08 13:00:00 26.1 10 Noroeste 24 Norte 0 1004.7 0.3 55
2018-10-08 12:00:00 25.2 9 Norte 22 Norte 0 1004.9 1.1 66
2018-10-08 11:00:00 24.3 10 Noroeste 25 Noroeste 0 1005 1.4 72
2018-10-08 10:00:00 22.8 14 Noroeste 30 Oeste 0 1004.4 1 69
2018-10-08 09:00:00 21.1 16 Noroeste 39 Noroeste 0 1003.8 0.5 67
2018-10-08 08:00:00 20.3 11 Noroeste 25 Oeste 0 1003.6 0.4 70
2018-10-08 07:00:00 20.5 4 Sur 10 Norte 0 1003.4 -0.1 53
2018-10-08 06:00:00 21.8 5 Norte 12 Noroeste 0 1003.3 -0.7 48
2018-10-08 05:00:00 23.4 6 Noroeste 19 Noroeste 0 1003.2 -1.1 34
2018-10-08 04:00:00 24 12 Noroeste 26 Noroeste 0 1003.5 -1.3 29
2018-10-08 03:00:00 22.3 4 Noroeste 16 Noroeste 0 1004 -1.1 42
2018-10-08 02:00:00 22.7 6 Oeste 17 Noroeste 0 1004.3 -1 41
2018-10-08 01:00:00 22.2 6 Oeste 14 Sudoeste 0 1004.8 -0.3 50
2018-10-08 00:00:00 22.4 7 Sudoeste 13 Sudoeste 0 1005.1 0.5 53
2018-10-07 23:00:00 23 6 Sudoeste 15 Oeste 0 1005.3 1 49
2018-10-07 22:00:00 24.8 6 Oeste 35 Noroeste 0 1005.1 0.9 35
2018-10-07 21:00:00 25.6 13 Noroeste 30 Oeste 0 1004.6 0.5 26
2018-10-07 20:00:00 25.7 8 Oeste 19 Oeste 0 1004.3 0 32
2018-10-07 19:00:00 26.9 9 Oeste 21 Sudoeste 0 1004.2 -0.2 35
2018-10-07 18:00:00 29.3 8 Noroeste 23 Noroeste 0 1004.1 -0.6 28
2018-10-07 17:00:00 29.7 9 Oeste 26 Sudoeste 0 1004.3 -1 32
2018-10-07 16:00:00 30.2 13 Sudoeste 27 Oeste 0 1004.4 -1.3 27
2018-10-07 15:00:00 30.4 14 Oeste 30 Oeste 0 1004.7 -1.1 25
2018-10-07 14:00:00 30.4 10 Sudoeste 26 Sudoeste 0 1005.3 -0.5 27
2018-10-07 13:00:00 28.6 7 Nordeste 11 Nordeste 0 1005.7 0.2 46
2018-10-07 12:00:00 26.1 7 Nordeste 11 Nordeste 0 1005.8 0.7 54
2018-10-07 11:00:00 24.8 6 Sudeste 9 Sur 0 1005.8 0.9 58
2018-10-07 10:00:00 22 3 Sudeste 10 Sudoeste 0 1005.5 0.8 83
2018-10-07 09:00:00 20.2 2 Noroeste 12 Sur 0 1005.1 0.3 75
2018-10-07 08:00:00 20.1 7 Sudoeste 13 Sur 0 1004.9 -0.2 89
2018-10-07 07:00:00 19.6 2 Sudoeste 12 Sur 0 1004.7 -0.9 80
2018-10-07 06:00:00 19.3 4 Sur 10 Sudoeste 0 1004.8 -1 91
2018-10-07 05:00:00 18.9 4 Sudoeste 8 Sur 0 1005.1 -0.9 97
2018-10-07 04:00:00 19.7 7 Sur 12 Sur 0 1005.6 -0.6 95
2018-10-07 03:00:00 20 8 Sur 14 Sur 0 1005.8 -0.9 95
2018-10-07 02:00:00 19.5 5 Nordeste 14 Nordeste 0 1006 -0.6 96
2018-10-07 01:00:00 20.1 5 Sur 10 Sudoeste 0 1006.2 -0.3 91
2018-10-07 00:00:00 19.9 0 Calma 7 Sur 0 1006.7 0.8 98
2018-10-06 23:00:00 20.6 3 Sur 7 Oeste 0 1006.6 0.8 95
2018-10-06 22:00:00 21.2 4 Sur 15 Sur 0 1006.5 0.5 93
2018-10-06 21:00:00 21.5 9 Sur 19 Sur 0 1005.9 0 93
2018-10-06 20:00:00 21.5 10 Sur 21 Sur 0 1005.8 -0.4 93
2018-10-06 19:00:00 21.7 12 Sur 16 Sur 0 1006 -0.5 92
2018-10-06 18:00:00 22.3 9 Sur 18 Sudeste 0 1005.9 -1 88
2018-10-06 17:00:00 23.6 10 Sudeste 18 Este 0 1006.2 -1 81
2018-10-06 16:00:00 22.8 11 Nordeste 21 Nordeste 0 1006.5 -0.9 86
2018-10-06 15:00:00 22.7 12 Nordeste 23 Este 0 1006.9 -0.8 85
2018-10-06 14:00:00 23.7 12 Nordeste 21 Este 0 1007.2 -0.5 81
2018-10-06 13:00:00 24.7 12 Este 23 Este 0 1007.4 0.2 77
2018-10-06 12:00:00 23.3 14 Este 23 Este 0 1007.7 0.9 82
2018-10-06 11:00:00 23 12 Este 19 Este 0 1007.7 1.3 84
2018-10-06 10:00:00 21.8 10 Este 18 Sudeste 0 1007.2 1.3 91
2018-10-06 09:00:00 19.9 2 Nordeste 6 Nordeste 0 1006.8 0.9 100
2018-10-06 08:00:00 19.9 4 Nordeste 9 Este 0 1006.4 0.7 98
2018-10-06 07:00:00 20.1 5 Este 14 Este 0 1005.9 -0.1 98
2018-10-06 06:00:00 20.4 8 Este 15 Este 0 1005.9 -0.4 97
2018-10-06 05:00:00 20.4 8 Este 16 Este 0 1005.7 -0.8 97
2018-10-06 04:00:00 20.4 9 Este 16 Este 0 1006 -0.5 95
2018-10-06 03:00:00 20.3 9 Este 17 Este 0 1006.3 -0.5 95
2018-10-06 02:00:00 20.3 9 Este 17 Este 0 1006.5 -0.1 95
2018-10-06 01:00:00 20.4 8 Sudeste 14 Sudeste 0 1006.5 0 96
2018-10-06 00:00:00 20.6 8 Sudeste 17 Sudeste 0 1006.8 0.8 96
2018-10-05 23:00:00 20.9 9 Sudeste 16 Sudeste 0 1006.6 1 94
2018-10-05 22:00:00 21.1 10 Sudeste 21 Este 0 1006.5 1 93
2018-10-05 21:00:00 21.3 12 Sudeste 18 Este 0 1006 0.3 92
2018-10-05 20:00:00 21.6 10 Este 22 Este 0 1005.6 -0.2 89
2018-10-05 19:00:00 22.1 14 Este 27 Este 0 1005.5 -0.5 86
2018-10-05 18:00:00 23.4 18 Este 27 Este 0 1005.7 -0.5 81
2018-10-05 17:00:00 24.9 16 Sudeste 29 Este 0 1005.8 -1.1 74
2018-10-05 16:00:00 23.7 13 Nordeste 31 Nordeste 0 1006 -1.4 81
2018-10-05 15:00:00 24.4 19 Este 31 Este 0 1006.2 -1.4 75
2018-10-05 14:00:00 25.4 16 Este 31 Sudeste 0 1006.9 -0.8 72
2018-10-05 13:00:00 24.1 16 Este 33 Este 0 1007.4 -0.2 79
2018-10-05 12:00:00 23.4 19 Este 30 Este 0 1007.6 0.5 80
2018-10-05 11:00:00 23.4 16 Este 24 Este 0 1007.7 1 80
2018-10-05 10:00:00 22.5 14 Este 23 Sudeste 0 1007.6 0.9 85
2018-10-05 09:00:00 20.8 12 Este 22 Este 0 1007.1 0.6 94
2018-10-05 08:00:00 20.4 10 Este 20 Este 0 1006.7 0.1 96
2018-10-05 07:00:00 20.6 9 Este 17 Este 0 1006.7 -0.4 97
2018-10-05 06:00:00 20.7 10 Este 19 Sudeste 0 1006.5 -1.2 95
2018-10-05 05:00:00 20.4 8 Este 17 Este 0 1006.6 -1.3 96
2018-10-05 04:00:00 20.3 6 Sudeste 13 Sudeste 0 1007.1 -1.2 96
2018-10-05 03:00:00 20.4 6 Sudeste 11 Sudeste 0 1007.7 -0.7 94
2018-10-05 02:00:00 20.3 6 Sudeste 13 Sudeste 0 1007.9 -0.5 94
2018-10-05 01:00:00 20.4 5 Sur 9 Sudeste 0 1008.3 0.2 92
2018-10-05 00:00:00 20.7 7 Sur 14 Sudeste 0 1008.4 0.6 92
2018-10-04 23:00:00 20.8 9 Sudeste 17 Este 0 1008.4 0.7 91
2018-10-04 22:00:00 21 10 Sudeste 19 Sudeste 0 1008.1 0.3 90
2018-10-04 21:00:00 21 11 Sudeste 20 Sudeste 0 1007.8 0 89
2018-10-04 20:00:00 21.5 10 Sudeste 21 Este 0 1007.7 -0.5 85
2018-10-04 19:00:00 22.7 10 Sudeste 23 Sudeste 0 1007.8 -0.5 80
2018-10-04 18:00:00 23.2 17 Este 30 Este 0 1007.8 -1.1 77
2018-10-04 17:00:00 23.9 19 Este 29 Este 0 1008.2 -1.2 72
2018-10-04 16:00:00 24.4 17 Este 31 Este 0 1008.3 -1.6 71
2018-10-04 15:00:00 24.4 19 Este 30 Este 0 1008.9 -1.1 70
2018-10-04 14:00:00 24.9 14 Este 28 Este 0 1009.4 -0.6 70
2018-10-04 13:00:00 24.6 16 Este 26 Este 0 1009.9 0.3 71
2018-10-04 12:00:00 23.9 17 Este 31 Este 0 1010 0.9 72
2018-10-04 11:00:00 23.1 17 Este 28 Este 0 1010 1.2 80
2018-10-04 10:00:00 22.2 14 Este 28 Sudeste 0 1009.6 1 84
2018-10-04 09:00:00 20.8 11 Sudeste 21 Este 0 1009.1 0.6 91
2018-10-04 08:00:00 19.9 10 Este 23 Este 0 1008.8 0 95
2018-10-04 07:00:00 19.6 9 Este 16 Este 0 1008.6 -0.8 100
2018-10-04 06:00:00 18.9 2 Norte 7 Norte 0 1008.5 -1.5 100
2018-10-04 05:00:00 19.1 5 Norte 12 Nordeste 0 1008.8 -1.6 100
2018-10-04 04:00:00 19.6 5 Nordeste 17 Este 0 1009.4 -1.3 98
2018-10-04 03:00:00 20.2 9 Este 22 Este 0 1010 -0.8 96
2018-10-04 02:00:00 20.3 8 Este 17 Este 0 1010.4 -0.3 94
2018-10-04 01:00:00 20.6 12 Este 24 Este 0 1010.7 0.2 95
2018-10-04 00:00:00 20.8 10 Sudeste 17 Sudeste 0 1010.8 0.6 95
2018-10-03 23:00:00 20.8 10 Sudeste 21 Sudeste 0 1010.7 0.9 92
2018-10-03 22:00:00 20.7 11 Este 22 Sudeste 0 1010.5 0.9 95
2018-10-03 21:00:00 20.9 11 Este 22 Este 0 1010.2 0.5 92
2018-10-03 20:00:00 21.4 11 Este 26 Sudeste 0 1009.8 0 87
2018-10-03 19:00:00 22.5 15 Este 27 Sudeste 0 1009.6 -0.6 77
2018-10-03 18:00:00 23.3 19 Este 31 Este 0 1009.7 -1.2 75
2018-10-03 17:00:00 23.6 19 Este 32 Este 0 1009.8 -1.7 77
2018-10-03 16:00:00 24.3 17 Este 30 Sudeste 0 1010.2 -1.5 72
2018-10-03 15:00:00 24.8 18 Este 32 Sudeste 0 1010.9 -0.6 71
2018-10-03 14:00:00 24.9 17 Sudeste 32 Sudeste 0 1011.5 0.4 70
2018-10-03 13:00:00 24.4 18 Este 33 Este 0 1011.7 1.2 74
2018-10-03 12:00:00 23.5 19 Este 30 Este 0 1011.5 1.6 84
2018-10-03 11:00:00 23.3 17 Este 26 Este 0 1011.1 1.4 84
2018-10-03 10:00:00 22.3 13 Este 21 Este 0 1010.5 0.8 89
2018-10-03 09:00:00 20.6 9 Este 15 Este 0 1009.9 0.2 99
2018-10-03 08:00:00 20.2 8 Este 14 Sudeste 0 1009.7 -0.4 98
2018-10-03 07:00:00 20.4 7 Sudeste 13 Sudeste 0 1009.7 -0.8 98
2018-10-03 06:00:00 20.8 8 Sudeste 15 Sudeste 0 1009.7 -1 97
2018-10-03 05:00:00 20.8 7 Sudeste 15 Este 0 1010.1 -0.8 98
2018-10-03 04:00:00 21 10 Sudeste 19 Sudeste 0 1010.5 -0.5 96
2018-10-03 03:00:00 21.1 10 Sudeste 17 Sudeste 0 1010.7 -0.2 96
2018-10-03 02:00:00 21.1 10 Este 18 Sudeste 0 1010.9 0.4 95
2018-10-03 01:00:00 21.1 8 Sudeste 18 Este 0 1011 1 96
2018-10-03 00:00:00 21.3 10 Este 17 Este 0 1010.9 1.5 99
2018-10-02 23:00:00 20.7 4 Norte 7 Norte 0 1010.5 1.6 99
2018-10-02 22:00:00 21 5 Norte 14 Este 0 1010 1.3 96
2018-10-02 21:00:00 21.7 8 Sudeste 14 Este 0 1009.4 0.6 94
2018-10-02 20:00:00 22.3 8 Sudeste 18 Este 0 1008.9 0.3 92
2018-10-02 19:00:00 22.9 12 Este 19 Sudeste 0 1008.7 -0.1 89
2018-10-02 18:00:00 22.7 8 Nordeste 16 Este 0 1008.8 -0.3 91
2018-10-02 17:00:00 23.2 9 Nordeste 19 Nordeste 0 1008.6 -0.8 89
2018-10-02 16:00:00 22.6 10 Nordeste 19 Nordeste 0 1008.8 -0.9 90
2018-10-02 15:00:00 22.6 12 Nordeste 19 Nordeste 0 1009.1 -0.7 91
2018-10-02 14:00:00 22.6 8 Nordeste 21 Nordeste 0 1009.4 0.1 90
2018-10-02 13:00:00 23.7 8 Nordeste 15 Nordeste 0 1009.7 0.9 86
2018-10-02 12:00:00 22.6 7 Norte 14 Norte 0 1009.8 2 90
2018-10-02 11:00:00 22.5 7 Norte 15 Nordeste 0 1009.3 2.1 91
2018-10-02 10:00:00 21.8 10 Norte 19 Norte 0 1008.8 2.4 94
2018-10-02 09:00:00 21.7 11 Norte 19 Norte 0 1007.8 1.5 93
2018-10-02 08:00:00 20.7 9 Noroeste 15 Noroeste 0 1007.2 1.1 78
2018-10-02 07:00:00 20.1 4 Oeste 7 Noroeste 0 1006.4 0.3 67
2018-10-02 06:00:00 20.7 3 Sudoeste 8 Sudoeste 0 1006.3 -0.1 70
2018-10-02 05:00:00 21.9 4 Sur 8 Sur 0 1006.1 -0.2 61
2018-10-02 04:00:00 22.2 4 Sudoeste 7 Oeste 0 1006.1 -0.4 59
2018-10-02 03:00:00 22.6 7 Sur 9 Sur 0 1006.4 -0.1 58
2018-10-02 02:00:00 23.3 6 Sudoeste 12 Sudoeste 0 1006.3 -0.1 56
2018-10-02 01:00:00 23 2 Sudoeste 6 Oeste 0 1006.5 0.7 58
2018-10-02 00:00:00 23.7 4 Sudoeste 7 Sur 0 1006.5 1.1 55
2018-10-01 23:00:00 24.7 5 Oeste 11 Oeste 0 1006.4 1 51
2018-10-01 22:00:00 25.1 7 Sudoeste 12 Oeste 0 1005.8 0.5 48
2018-10-01 21:00:00 25.5 4 Oeste 13 Sudoeste 0 1005.4 0.1 46
2018-10-01 20:00:00 26.4 3 Norte 24 Oeste 0 1005.4 0.1 45
2018-10-01 19:00:00 27.9 14 Noroeste 26 Oeste 0 1005.3 -0.1 43
2018-10-01 18:00:00 29.5 10 Noroeste 25 Noroeste 0 1005.3 -0.8 42
2018-10-01 17:00:00 30.5 11 Noroeste 23 Sudoeste 0 1005.3 -1.4 40
2018-10-01 16:00:00 30.3 12 Sudoeste 24 Sudoeste 0 1005.4 -1.6 43
2018-10-01 15:00:00 30.4 5 Sudeste 17 Sudoeste 0 1006.1 -1.4 44
2018-10-01 14:00:00 28.7 7 Sudeste 20 Norte 0 1006.7 -1 48
2018-10-01 13:00:00 28.4 11 Norte 24 Noroeste 0 1007 -0.5 46
2018-10-01 12:00:00 24.4 7 Nordeste 10 Sudeste 0 1007.5 0.5 73
2018-10-01 11:00:00 23.3 5 Este 29 Este 0 1007.7 1.3 78
2018-10-01 10:00:00 22.3 4 Sur 12 Sudoeste 0 1007.5 1.3 82
2018-10-01 09:00:00 20.8 10 Sur 14 Sur 0 1007 0.6 89
2018-10-01 08:00:00 21.7 5 Sudoeste 13 Sur 0 1006.4 -0.2 74
2018-10-01 07:00:00 21.7 3 Sudoeste 13 Sur 0 1006.2 -1.1 73
2018-10-01 06:00:00 22.5 5 Noroeste 26 Noroeste 0 1006.4 -1 68
2018-10-01 05:00:00 22 10 Noroeste 22 Noroeste 0 1006.6 -1.1 64
2018-10-01 04:00:00 21 4 Nordeste 16 Sudoeste 0 1007.3 -0.7 81
2018-10-01 03:00:00 20.9 9 Sudoeste 16 Sudoeste 0 1007.4 -0.6 92
2018-10-01 02:00:00 20.8 9 Sur 16 Sur 0 1007.7 0.4 95
2018-10-01 01:00:00 20.9 8 Sudoeste 14 Sudoeste 0.2 1008 0.5 94
2018-10-01 00:00:00 21.4 8 Sur 17 Norte 0 1008 1 85
2018-09-30 23:00:00 20.5 10 Norte 14 Norte 0 1007.3 0.6 98
2018-09-30 22:00:00 21.4 0 Calma 10 Sur 0 1007.5 1.4 92
2018-09-30 21:00:00 21.5 7 Sur 17 Sur 0 1007 0.4 92
2018-09-30 20:00:00 21.7 11 Sur 18 Sur 0 1006.7 -0.1 90
2018-09-30 19:00:00 22.5 13 Sur 19 Sur 0 1006.1 -1.2 85
2018-09-30 18:00:00 22.1 9 Sur 17 Sudeste 0 1006.6 -1 88
2018-09-30 17:00:00 23.2 8 Sudeste 13 Sudeste 0 1006.8 -1.3 82
2018-09-30 16:00:00 23 8 Sur 13 Sur 0 1007.3 -1.2 84
2018-09-30 15:00:00 22.8 6 Sudeste 13 Sudeste 0 1007.6 -0.9 85
2018-09-30 14:00:00 22.6 7 Este 17 Este 0 1008.1 -0.2 88
2018-09-30 13:00:00 22.7 11 Este 20 Este 0 1008.5 0.7 87
2018-09-30 12:00:00 22.4 10 Este 18 Sudeste 0 1008.5 1.3 88
2018-09-30 11:00:00 23 10 Sudeste 16 Sudeste 0 1008.3 1.5 84
2018-09-30 10:00:00 21.5 8 Este 13 Este 0 1007.8 1 94
2018-09-30 09:00:00 20.9 5 Nordeste 12 Este 0 1007.2 0.6 96
2018-09-30 08:00:00 20.1 2 Norte 7 Norte 0 1006.8 0.6 98
2018-09-30 07:00:00 20.3 3 Sudeste 8 Sur 0 1006.8 0.7 99
2018-09-30 06:00:00 20.5 5 Sur 11 Sudeste 0 1006.6 0.5 98
2018-09-30 05:00:00 20.7 5 Sudeste 12 Este 0 1006.2 -0.2 96
2018-09-30 04:00:00 20.6 8 Sudeste 16 Este 0 1006.1 -0.2 95
2018-09-30 03:00:00 20.5 7 Este 14 Sudeste 0 1006.1 0 96
2018-09-30 02:00:00 20.5 8 Sudeste 14 Sudeste 0 1006.4 0.2 95
2018-09-30 01:00:00 20.4 8 Sudeste 12 Sudeste 0 1006.3 0.5 95
2018-09-30 00:00:00 20.7 5 Sur 13 Sudoeste 0 1006.1 0.9 95
2018-09-29 23:00:00 20.9 7 Sur 16 Sur 0 1006.2 1.3 93
2018-09-29 22:00:00 21.2 9 Sur 19 Sur 0 1005.8 1 89
2018-09-29 21:00:00 21.5 13 Sur 21 Sur 0 1005.2 0.2 87
2018-09-29 20:00:00 21.7 13 Sur 18 Sudeste 0 1004.9 -0.3 87
2018-09-29 19:00:00 22.7 10 Sudeste 22 Este 0 1004.8 -0.8 82
2018-09-29 18:00:00 23.7 15 Sudeste 23 Este 0 1005 -1.2 76
2018-09-29 17:00:00 24.2 14 Este 24 Este 0 1005.2 -1.5 74
2018-09-29 16:00:00 24.9 14 Este 22 Este 0 1005.6 -1.4 71
2018-09-29 15:00:00 25 16 Sudeste 25 Este 0 1006.2 -1.2 71
2018-09-29 14:00:00 25.1 13 Sudeste 24 Este 0 1006.7 -0.7 73
2018-09-29 13:00:00 25 13 Sudeste 22 Sudeste 0 1007 -0.2 74
2018-09-29 12:00:00 24.3 13 Este 22 Sudeste 0 1007.4 0.7 79
2018-09-29 11:00:00 23.3 14 Este 22 Este 0 1007.4 0.9 83
2018-09-29 10:00:00 22.1 12 Este 18 Este 0 1007.2 1 91
2018-09-29 09:00:00 20.7 9 Sudeste 15 Sudeste 0 1006.7 0.6 98
2018-09-29 08:00:00 20.5 8 Este 14 Este 0 1006.5 0.1 98
2018-09-29 07:00:00 20.6 8 Sudeste 15 Sudeste 0 1006.2 -0.5 98
2018-09-29 06:00:00 20.7 9 Sudeste 15 Este 0 1006.1 -0.8 97
2018-09-29 05:00:00 20.7 7 Sudeste 13 Sudeste 0 1006.4 -0.8 98
2018-09-29 04:00:00 20.6 8 Sudeste 15 Sudeste 0 1006.7 -0.7 98
2018-09-29 03:00:00 20.7 8 Sudeste 16 Sudeste 0 1006.9 -0.6 99
2018-09-29 02:00:00 20.4 8 Sudeste 15 Sudeste 0 1007.2 -0.3 100
2018-09-29 01:00:00 20.7 10 Sudeste 18 Sudeste 0 1007.4 -0.1 97
2018-09-29 00:00:00 20.9 10 Sudeste 23 Sudeste 0 1007.5 0.4 95
2018-09-28 23:00:00 20.9 9 Sudeste 17 Sudeste 0 1007.5 0.7 95
2018-09-28 22:00:00 20.9 7 Sudeste 16 Sur 0 1007.5 0.5 95
2018-09-28 21:00:00 21.2 9 Sudeste 17 Sudeste 0 1007.1 -0.2 92
2018-09-28 20:00:00 21.7 12 Sudeste 21 Sudeste 0 1006.8 -0.7 87
2018-09-28 19:00:00 23.1 13 Sudeste 24 Este 0 1007 -0.9 80
2018-09-28 18:00:00 23.8 17 Este 30 Este 0 1007.3 -1.2 76
2018-09-28 17:00:00 24.5 17 Este 25 Este 0 1007.5 -1.8 75
2018-09-28 16:00:00 23.8 13 Sudeste 24 Sur 0 1007.9 -1.7 79
2018-09-28 15:00:00 23.9 14 Sudeste 24 Sudeste 0 1008.5 -1.7 76
2018-09-28 14:00:00 25.2 12 Sudeste 24 Sudeste 0 1009.3 -1 72
2018-09-28 13:00:00 24.1 13 Sudeste 26 Este 0 1009.6 -0.4 78
2018-09-28 12:00:00 23.9 15 Sudeste 27 Sudeste 0 1010.2 0.5 81
2018-09-28 11:00:00 22.1 13 Sudeste 22 Este 0 1010.3 0.8 91
2018-09-28 10:00:00 22.1 11 Este 22 Sudeste 0 1010 0.7 90
2018-09-28 09:00:00 21.3 12 Este 26 Este 0 1009.7 0.4 95
2018-09-28 08:00:00 20.9 15 Este 23 Sudeste 0 1009.5 -0.3 96
2018-09-28 07:00:00 21 13 Este 24 Este 0 1009.3 -1.1 96
2018-09-28 06:00:00 21.2 15 Este 26 Sudeste 0 1009.3 -1.8 94
2018-09-28 05:00:00 21.7 13 Este 29 Este 0 1009.8 -1.8 91
2018-09-28 04:00:00 21.8 11 Este 24 Este 0 1010.4 -1.6 91
2018-09-28 03:00:00 20.8 10 Nordeste 34 Este 0 1011.1 -1 98
2018-09-28 02:00:00 22.5 14 Este 35 Este 0 1011.6 -0.5 86
2018-09-28 01:00:00 22.3 16 Este 35 Este 0 1012 0.1 92
2018-09-28 00:00:00 22.2 12 Este 27 Este 0 1012.1 0.6 93
2018-09-27 23:00:00 22 11 Este 28 Este 0 1012.1 0.8 93
2018-09-27 22:00:00 22 14 Sudeste 35 Este 0 1011.9 0.8 93
2018-09-27 21:00:00 22.3 16 Sudeste 31 Sudeste 0 1011.5 0.1 92
2018-09-27 20:00:00 22.5 18 Sudeste 29 Sudeste 0 1011.3 -0.6 91
2018-09-27 19:00:00 22.8 19 Sudeste 30 Sudeste 0 1011.1 -1.3 89
2018-09-27 18:00:00 23.2 12 Sudeste 33 Sudeste 0 1011.4 -1.8 87
2018-09-27 17:00:00 23.5 18 Este 36 Este 0 1011.9 -1.9 86
2018-09-27 16:00:00 23.8 19 Este 42 Sudeste 0 1012.4 -1.9 84
2018-09-27 15:00:00 23.4 23 Este 44 Este 0 1013.2 -1.4 86
2018-09-27 14:00:00 23.3 19 Este 41 Este 0 1013.8 -0.8 90
2018-09-27 13:00:00 23.7 19 Este 28 Este 0 1014.3 0.2 86
2018-09-27 12:00:00 22.7 10 Sudeste 23 Este 0 1014.6 0.9 91
2018-09-27 11:00:00 22.1 15 Sudeste 33 Este 0 1014.6 1.3 95
2018-09-27 10:00:00 22.7 16 Este 37 Sudeste 0 1014.1 1 89
2018-09-27 09:00:00 22.3 17 Este 32 Este 0 1013.7 0.5 92
2018-09-27 08:00:00 21.9 12 Este 27 Sudeste 0 1013.3 -0.2 96
2018-09-27 07:00:00 21.8 17 Este 29 Este 0 1013.1 -1 98
2018-09-27 06:00:00 22 19 Este 38 Este 0 1013.2 -1.2 97
2018-09-27 05:00:00 22.1 15 Este 34 Sudeste 0 1013.5 -1.3 97
2018-09-27 04:00:00 22.2 14 Este 40 Este 0 1014.1 -0.8 96
2018-09-27 03:00:00 22.4 19 Este 35 Sudeste 0 1014.4 -0.8 96
2018-09-27 02:00:00 22.4 18 Este 30 Este 0 1014.8 -0.2 96
2018-09-27 01:00:00 22.8 15 Este 29 Este 0 1014.9 0.2 95
2018-09-27 00:00:00 22.8 14 Este 28 Este 0 1015.2 1.3 95
2018-09-26 23:00:00 22.9 13 Este 26 Este 0 1015 1.8 96
2018-09-26 22:00:00 23 10 Sudeste 19 Sudeste 0 1014.7 1.5 95
2018-09-26 21:00:00 22.9 10 Sudeste 19 Sudeste 0 1013.9 1 94
2018-09-26 20:00:00 23.1 11 Sudeste 22 Sudeste 0 1013.2 0.1 92
2018-09-26 19:00:00 23.9 13 Sudeste 26 Sudeste 0 1013.2 0 87
2018-09-26 18:00:00 25.1 15 Sudeste 28 Sudeste 0 1012.9 -0.6 82
2018-09-26 17:00:00 25 15 Sudeste 25 Este 0 1013.1 -0.9 84
2018-09-26 16:00:00 26 13 Sudeste 36 Este 0 1013.2 -1.2 78
2018-09-26 15:00:00 26.4 18 Este 37 Este 0 1013.5 -0.9 76
2018-09-26 14:00:00 26.1 18 Este 36 Este 0 1014 -0.2 78
2018-09-26 13:00:00 26.3 21 Este 37 Este 0 1014.4 0.8 78
2018-09-26 12:00:00 25.9 21 Este 36 Este 0 1014.4 1.3 81
2018-09-26 11:00:00 25.5 17 Este 37 Este 0 1014.2 1.7 82
2018-09-26 10:00:00 24.4 18 Este 34 Este 0 1013.6 1.7 87
2018-09-26 09:00:00 23.1 15 Este 35 Este 0 1013.1 1.2 94
2018-09-26 08:00:00 22.7 17 Este 36 Este 0 1012.5 0.7 97
2018-09-26 07:00:00 22.8 14 Este 32 Sudeste 0 1011.9 0 98
2018-09-26 06:00:00 23.1 17 Este 29 Sudeste 0 1011.9 -0.2 98
2018-09-26 05:00:00 23.1 13 Este 28 Este 0 1011.8 -0.4 100
2018-09-26 04:00:00 23 12 Este 22 Este 0 1011.9 -0.1 100
2018-09-26 03:00:00 23.1 15 Este 24 Este 0 1012.1 0.4 99
2018-09-26 02:00:00 23.2 16 Este 28 Este 0 1012.2 0.8 97
2018-09-26 01:00:00 23.3 17 Este 28 Este 0 1012 1.1 98
2018-09-26 00:00:00 23.4 12 Este 22 Este 0 1011.7 1.4 97
2018-09-25 23:00:00 23.4 13 Este 26 Sudeste 0 1011.4 1.5 98
2018-09-25 22:00:00 23.5 14 Este 24 Sudeste 0 1010.9 1.2 97
2018-09-25 21:00:00 23.5 12 Este 23 Este 0 1010.3 0.4 96
2018-09-25 20:00:00 24 14 Este 27 Este 0 1009.9 -0.2 94
2018-09-25 19:00:00 24.6 14 Este 27 Este 0 1009.7 -0.8 91
2018-09-25 18:00:00 25.2 18 Este 27 Este 0 1009.9 -1.1 88
2018-09-25 17:00:00 26.5 15 Este 26 Este 0 1010.1 -1.6 81
2018-09-25 16:00:00 26.6 17 Este 24 Este 0 1010.5 -1.4 80
2018-09-25 15:00:00 26.7 15 Este 24 Este 0 1011 -0.7 82
2018-09-25 14:00:00 25.1 13 Este 23 Este 0 1011.7 0.2 86
2018-09-25 13:00:00 25.3 12 Nordeste 24 Sudeste 0 1011.9 1.3 85
2018-09-25 12:00:00 24.9 10 Este 22 Este 0 1011.7 1.8 90
2018-09-25 11:00:00 25.4 11 Este 20 Este 0 1011.5 2.3 84
2018-09-25 10:00:00 23.5 9 Este 14 Este 0 1010.6 1.9 92
2018-09-25 09:00:00 22.2 9 Este 15 Este 0 1009.9 1.2 100
2018-09-25 08:00:00 22.2 6 Sudeste 12 Sur 0 1009.2 0.4 100
2018-09-25 07:00:00 22.4 6 Sur 11 Sur 0 1008.7 -0.3 99
2018-09-25 06:00:00 22.4 7 Sur 13 Sur 0 1008.7 -0.5 99
2018-09-25 05:00:00 22.5 5 Sudeste 12 Sur 0 1008.8 -0.7 100
2018-09-25 04:00:00 22.5 8 Sur 15 Sur 0 1009 -0.6 99
2018-09-25 03:00:00 22.7 9 Sudeste 15 Sudeste 0 1009.2 -0.6 97
2018-09-25 02:00:00 22.6 8 Sudeste 14 Sudeste 0 1009.5 -0.2 97
2018-09-25 01:00:00 22.6 7 Sur 13 Sudoeste 0 1009.6 0.4 98
2018-09-25 00:00:00 22.7 7 Sur 13 Sur 0 1009.8 1.3 99
2018-09-24 23:00:00 22.8 6 Sudeste 15 Sudeste 0 1009.7 1.2 98
2018-09-24 22:00:00 23 5 Sudeste 13 Sudeste 0 1009.2 0.9 97
2018-09-24 21:00:00 23.3 8 Sudeste 12 Sudeste 0 1008.5 0.3 94
2018-09-24 20:00:00 24.1 6 Sur 14 Sudeste 0 1008.5 0 89
2018-09-24 19:00:00 26.2 9 Sudeste 13 Sudeste 0 1008.3 -0.7 75
2018-09-24 18:00:00 27.3 8 Sudeste 14 Sur 0 1008.2 -1.2 71
2018-09-24 17:00:00 27.5 7 Sudeste 14 Sur 0 1008.5 -1.6 69
2018-09-24 16:00:00 27.3 8 Sudeste 17 Sur 0 1009 -1.4 71
2018-09-24 15:00:00 26.6 11 Sur 21 Sur 0 1009.4 -1.2 72
2018-09-24 14:00:00 26.3 11 Sur 20 Sudeste 0 1010.1 -0.1 76
2018-09-24 13:00:00 25.7 12 Sudeste 18 Sur 0 1010.4 0.4 77
2018-09-24 12:00:00 25.5 11 Sudeste 19 Sur 0 1010.6 1.1 79
2018-09-24 11:00:00 24.5 9 Sur 19 Sur 0 1010.2 1.2 82
2018-09-24 10:00:00 23.5 9 Sur 15 Sur 0 1010 1.2 87
2018-09-24 09:00:00 22.2 8 Sur 12 Sur 0 1009.5 0.6 94
2018-09-24 08:00:00 22.2 5 Sudeste 10 Sudeste 0 1009 -0.1 94
2018-09-24 07:00:00 22.1 6 Sudeste 10 Sudeste 0 1008.8 -0.6 94
2018-09-24 06:00:00 22.3 3 Sudeste 8 Sur 0 1008.9 -0.8 96
2018-09-24 05:00:00 22.2 6 Sudeste 13 Sudeste 0 1009.1 -0.9 97
2018-09-24 04:00:00 22.3 5 Sudeste 13 Este 0 1009.4 -0.8 100
2018-09-24 03:00:00 22.4 6 Sudeste 12 Sudeste 0 1009.7 -0.6 100
2018-09-24 02:00:00 22.4 8 Sur 13 Este 0 1010 -0.3 99
2018-09-24 01:00:00 22.5 6 Este 15 Nordeste 0 1010.2 0.2 98
2018-09-24 00:00:00 22.3 4 Nordeste 10 Este 0 1010.3 0.5 98
2018-09-23 23:00:00 22.6 5 Sur 12 Sudeste 0 1010.3 0.6 96
2018-09-23 22:00:00 22.7 4 Sudeste 17 Este 0 1010 0.4 95
2018-09-23 21:00:00 23 5 Sur 13 Sudoeste 0 1009.8 0.2 95
2018-09-23 20:00:00 23.1 9 Sudeste 17 Sur 0 1009.7 -0.1 93
2018-09-23 19:00:00 24.4 9 Sur 19 Sur 0 1009.6 -0.5 85
2018-09-23 18:00:00 24.3 7 Sudeste 16 Sudeste 0 1009.6 -0.9 88
2018-09-23 17:00:00 24.9 9 Este 16 Sur 0 1009.8 -1.2 83
2018-09-23 16:00:00 25.1 8 Sudeste 16 Sudeste 0 1010.1 -1.3 82
2018-09-23 15:00:00 25.2 8 Sudeste 18 Sur 0 1010.5 -0.9 79
2018-09-23 14:00:00 24.8 10 Sudeste 23 Sudeste 0 1011 -0.4 81
2018-09-23 13:00:00 24.3 10 Sudeste 18 Sudeste 0 1011.4 0.5 88
2018-09-23 12:00:00 23.7 12 Sudeste 19 Sudeste 0 1011.4 1.1 92
2018-09-23 11:00:00 23.1 12 Sudeste 21 Este 0 1011.4 1.3 97
2018-09-23 10:00:00 22.7 10 Este 19 Sudeste 0 1010.9 0.9 100
2018-09-23 09:00:00 22.3 12 Este 23 Este 0 1010.3 0.2 100
2018-09-23 08:00:00 21.7 9 Este 17 Este 0 1010.1 -0.1 100
2018-09-23 07:00:00 21.6 7 Este 14 Este 0 1010 -0.6 100
2018-09-23 06:00:00 21.9 9 Este 20 Sudeste 0 1010.1 -1.1 100
2018-09-23 05:00:00 21.9 9 Este 17 Este 0 1010.2 -1.2 100
2018-09-23 04:00:00 22.1 9 Este 16 Este 0 1010.6 -1.1 100
2018-09-23 03:00:00 22 9 Este 17 Este 0 1011.2 -0.7 99
2018-09-23 02:00:00 22 9 Sudeste 15 Este 0 1011.4 -0.3 100
2018-09-23 01:00:00 22 9 Sudeste 14 Este 0 1011.7 0.5 100
2018-09-23 00:00:00 22.2 9 Sudeste 15 Sudeste 0 1011.9 1.2 100
2018-09-22 23:00:00 22.2 8 Sur 16 Sudeste 0 1011.7 1.2 100
2018-09-22 22:00:00 22.4 9 Sudeste 19 Sudeste 0 1011.2 0.8 100
2018-09-22 21:00:00 22.8 11 Sudeste 20 Sudeste 0 1010.7 0.4 97
2018-09-22 20:00:00 23.2 13 Sudeste 23 Sudeste 0 1010.5 -0.1 95
2018-09-22 19:00:00 23.8 14 Sudeste 26 Sudeste 0 1010.4 -0.6 92
2018-09-22 18:00:00 23.8 11 Sudeste 21 Sudeste 0 1010.3 -1 91
2018-09-22 17:00:00 24.2 14 Sudeste 23 Sudeste 0 1010.6 -1 89
2018-09-22 16:00:00 25.1 12 Sudeste 23 Sudeste 0 1011 -0.7 85
2018-09-22 15:00:00 25 13 Sudeste 27 Este 0 1011.3 -0.3 85
2018-09-22 14:00:00 26 17 Este 29 Este 0 1011.6 0.5 81
2018-09-22 13:00:00 25.4 16 Este 27 Este 0 1011.7 1.1 81
2018-09-22 12:00:00 24.5 13 Este 22 Nordeste 0 1011.6 1.6 87
2018-09-22 11:00:00 23.1 12 Este 19 Este 0 1011.1 1.7 98
2018-09-22 10:00:00 21.6 6 Sudeste 11 Sudeste 0 1010.6 1.5 100
2018-09-22 09:00:00 21.3 5 Sudeste 15 Sur 0 1010 1.1 100
2018-09-22 08:00:00 21.5 8 Sur 14 Sudoeste 0 1009.4 0.7 100
2018-09-22 07:00:00 21.7 10 Sur 17 Sur 0 1009.1 0.1 100
2018-09-22 06:00:00 22 7 Sur 13 Sur 0 1008.9 -0.4 100
2018-09-22 05:00:00 22.1 6 Sur 12 Sudeste 0 1008.7 -0.7 100
2018-09-22 04:00:00 22.1 7 Sudeste 12 Sur 0 1009 -0.4 97
2018-09-22 03:00:00 22.3 7 Este 12 Sudeste 0 1009.3 -0.1 100
2018-09-22 02:00:00 22.4 8 Sudeste 13 Sur 0 1009.4 0.2 100
2018-09-22 01:00:00 22.5 8 Sur 14 Sur 0 1009.4 0.6 99
2018-09-22 00:00:00 22.5 9 Sudeste 15 Sudeste 0 1009.4 1.3 98
2018-09-21 23:00:00 22.6 8 Sur 14 Sur 0 1009.2 1.5 98
2018-09-21 22:00:00 22.7 7 Sur 13 Sur 0 1008.8 1.5 97
2018-09-21 21:00:00 22.9 9 Sur 12 Sur 0 1008.1 0.7 96
2018-09-21 20:00:00 23.4 9 Sur 16 Sur 0 1007.7 0 94
2018-09-21 19:00:00 24.1 11 Sur 17 Sur 0 1007.3 -0.7 90
2018-09-21 18:00:00 24.7 11 Sudeste 19 Sudeste 0 1007.4 -1 88
2018-09-21 17:00:00 24.5 14 Sudeste 19 Sudeste 0 1007.7 -1.1 88
2018-09-21 16:00:00 25.4 13 Sur 20 Este 0 1008 -1 83
2018-09-21 15:00:00 26.8 14 Este 19 Este 0 1008.4 -0.7 76
2018-09-21 14:00:00 26.5 10 Este 18 Sur 0 1008.8 0 77
2018-09-21 13:00:00 25.8 13 Sudeste 19 Sur 0 1009 0.7 81
2018-09-21 12:00:00 25.6 10 Sudeste 18 Sudeste 0 1009.1 1.2 84
2018-09-21 11:00:00 24.5 11 Sudeste 17 Sudeste 0 1008.8 1.2 89
2018-09-21 10:00:00 23.7 8 Sudeste 18 Sudeste 0 1008.3 0.9 95
2018-09-21 09:00:00 22.6 8 Sur 14 Sudeste 0 1007.9 0.7 100
2018-09-21 08:00:00 22.6 7 Sudeste 16 Este 0 1007.6 0.4 100
2018-09-21 07:00:00 22.8 10 Este 17 Este 0 1007.4 0 98
2018-09-21 06:00:00 22.8 9 Este 17 Este 0 1007.2 -0.6 99
2018-09-21 05:00:00 22.9 9 Este 18 Este 0 1007.2 -1 99
2018-09-21 04:00:00 23 8 Este 17 Este 0 1007.4 -0.8 97
2018-09-21 03:00:00 23 9 Este 15 Este 0 1007.8 -0.5 99
2018-09-21 02:00:00 23 8 Nordeste 14 Este 0 1008.2 -0.3 99
2018-09-21 01:00:00 23.1 11 Este 17 Este 0 1008.2 0.1 98
2018-09-21 00:00:00 23.2 11 Este 19 Este 0 1008.3 0.7 98
2018-09-20 23:00:00 23.1 10 Este 18 Este 0 1008.5 0.9 98
2018-09-20 22:00:00 23.3 7 Este 16 Este 0 1008.1 0.3 97
2018-09-20 21:00:00 23.4 8 Sudeste 14 Sudeste 0 1007.6 -0.4 97
2018-09-20 20:00:00 23.7 8 Sudeste 16 Este 0 1007.6 -0.7 95
2018-09-20 19:00:00 24.2 12 Este 21 Este 0 1007.8 -1 92
2018-09-20 18:00:00 25.5 13 Este 21 Sudeste 0 1008 -1.3 84
2018-09-20 17:00:00 25.2 13 Este 24 Este 0 1008.3 -1.5 86
2018-09-20 16:00:00 26.3 14 Este 23 Este 0 1008.8 -1.4 82
2018-09-20 15:00:00 26 15 Este 24 Este 0 1009.3 -1.1 83
2018-09-20 14:00:00 26.7 15 Este 23 Este 0 1009.8 -0.3 78
2018-09-20 13:00:00 26.4 14 Este 23 Este 0 1010.2 0.6 81
2018-09-20 12:00:00 25.6 11 Sudeste 20 Sudeste 0 1010.4 1 87
2018-09-20 11:00:00 23.9 8 Sudeste 15 Sudeste 0 1010.1 1 94
2018-09-20 10:00:00 23.6 8 Sudeste 17 Este 0 1009.6 0.6 97
2018-09-20 09:00:00 22.6 9 Sudeste 18 Sudeste 0 1009.4 0.4 100
2018-09-20 08:00:00 22.7 9 Este 17 Este 0 1009.1 -0.1 100
2018-09-20 07:00:00 22.6 6 Nordeste 13 Nordeste 0 1009 -0.5 99
2018-09-20 06:00:00 22.5 5 Este 12 Este 0 1009 -0.8 100
2018-09-20 05:00:00 22.5 7 Este 18 Sudeste 0 1009.2 -0.8 97
2018-09-20 04:00:00 22.6 6 Este 15 Este 0 1009.5 -0.3 97
2018-09-20 03:00:00 22.5 9 Este 19 Este 0 1009.8 -0.2 100
2018-09-20 02:00:00 22.8 11 Nordeste 17 Este 0 1010 -0.1 99
2018-09-20 01:00:00 23.2 8 Sudeste 14 Sudeste 0 1009.8 -0.3 95
2018-09-20 00:00:00 23.4 8 Sur 15 Sur 0 1010 0.6 97
2018-09-19 23:00:00 23.3 7 Sur 15 Este 0 1010.1 1.2 96
2018-09-19 22:00:00 23.6 9 Este 14 Sudeste 0 1010.1 1.3 95
2018-09-19 21:00:00 23.5 6 Sudeste 12 Sur 0 1009.4 0.8 95
2018-09-19 20:00:00 24 7 Sudeste 16 Sur 0 1008.9 0.2 94
2018-09-19 19:00:00 24.3 10 Sur 15 Sudeste 0 1008.8 -0.2 91
2018-09-19 18:00:00 25.2 11 Sudeste 17 Sur 0 1008.6 -0.9 83
2018-09-19 17:00:00 25.9 12 Sudeste 18 Sur 0 1008.7 -0.9 78
2018-09-19 16:00:00 26.7 9 Este 17 Este 0 1009 -0.8 75
2018-09-19 15:00:00 26.8 9 Sudeste 17 Este 0 1009.5 -0.4 74
2018-09-19 14:00:00 26 9 Sur 15 Sur 0 1009.6 0.1 77
2018-09-19 13:00:00 25.4 9 Sudeste 15 Sur 0 1009.8 1 83
2018-09-19 12:00:00 24.8 9 Sudeste 14 Sur 0 1009.9 1.5 86
2018-09-19 11:00:00 23.9 8 Sudeste 12 Este 0 1009.5 1.5 90
2018-09-19 10:00:00 22.1 5 Este 8 Nordeste 0 1008.8 1.1 100
2018-09-19 09:00:00 21.6 2 Noroeste 6 Norte 0 1008.4 0.8 100
2018-09-19 08:00:00 21.9 0 Calma 6 Sudeste 0 1008 0.6 99
2018-09-19 07:00:00 22.3 3 Sudeste 8 Sur 0 1007.7 0.4 98
2018-09-19 06:00:00 22.2 4 Sur 9 Sudoeste 0 1007.6 0.4 100
2018-09-19 05:00:00 21.9 4 Sudoeste 10 Sur 0 1007.4 0 99
2018-09-19 04:00:00 21.7 6 Sur 10 Sur 0 1007.3 -0.2 97
2018-09-19 03:00:00 21.7 8 Sur 11 Sudoeste 0 1007.2 -0.3 92
2018-09-19 02:00:00 21.6 4 Sudoeste 7 Sudoeste 0 1007.4 -0.1 93
2018-09-19 01:00:00 21.7 2 Oeste 5 Nordeste 0 1007.5 0.4 93
2018-09-19 00:00:00 22 2 Noroeste 6 Nordeste 0 1007.5 1.3 92
2018-09-18 23:00:00 22.5 4 Noroeste 7 Norte 0 1007.5 1.6 89
2018-09-18 22:00:00 23.5 0 Calma 10 Sur 0 1007.1 1.7 89
2018-09-18 21:00:00 24.1 6 Sur 10 Sur 0 1006.2 1 86
2018-09-18 20:00:00 24.6 4 Nordeste 14 Sur 0 1005.9 0.7 83
2018-09-18 19:00:00 25.6 9 Sur 16 Sur 0 1005.4 -0.1 79
2018-09-18 18:00:00 25.8 12 Sur 18 Sur 0 1005.2 -0.8 76
2018-09-18 17:00:00 26.2 10 Sur 16 Sur 0 1005.2 -1.1 74
2018-09-18 16:00:00 25.9 7 Nordeste 15 Este 0 1005.5 -0.8 78
2018-09-18 15:00:00 25.6 8 Nordeste 14 Este 0 1006 -0.5 80
2018-09-18 14:00:00 25.8 10 Nordeste 14 Este 0 1006.3 0 80
2018-09-18 13:00:00 25.9 8 Nordeste 13 Nordeste 0 1006.3 0.5 79
2018-09-18 12:00:00 25.3 8 Nordeste 10 Nordeste 0 1006.5 1.1 84
2018-09-18 11:00:00 24.8 6 Sudeste 10 Sudeste 0 1006.3 1.4 89
2018-09-18 10:00:00 22.7 2 Sudeste 4 Sur 0 1005.8 1 100
2018-09-18 09:00:00 21.7 2 Nordeste 4 Norte 0 1005.4 0.9 100
2018-09-18 08:00:00 21.6 4 Noroeste 5 Oeste 0 1004.9 0.6 100
2018-09-18 07:00:00 22.1 2 Noroeste 7 Norte 0 1004.8 0.5 100
2018-09-18 06:00:00 22.7 3 Este 6 Sur 0 1004.5 -0.2 100
2018-09-18 05:00:00 22.6 4 Nordeste 6 Nordeste 0 1004.3 -0.5 100
2018-09-18 04:00:00 22.6 2 Oeste 4 Norte 0 1004.3 -0.7 100
2018-09-18 03:00:00 22.3 3 Nordeste 8 Nordeste 0 1004.7 -0.3 100
2018-09-18 02:00:00 22.3 4 Norte 7 Noroeste 0 1004.8 -0.3 100
2018-09-18 01:00:00 22.4 2 Norte 6 Norte 0 1005 0.4 100
2018-09-18 00:00:00 23 3 Nordeste 10 Sudeste 0 1005 0.8 99
2018-09-17 23:00:00 23.2 4 Sudeste 14 Este 0 1005.1 1.1 98
2018-09-17 22:00:00 23 9 Este 15 Este 0 1004.6 0.7 99
2018-09-17 21:00:00 23.3 9 Este 15 Este 0 1004.2 0 97
2018-09-17 20:00:00 23.7 8 Sudeste 19 Este 0 1004 -0.5 95
2018-09-17 19:00:00 24.5 11 Este 17 Sudeste 0 1003.9 -1.1 91
2018-09-17 18:00:00 24.5 8 Este 15 Norte 0 1004.2 -1.5 91
2018-09-17 17:00:00 24.3 8 Nordeste 19 Este 0 1004.5 -1.8 90
2018-09-17 16:00:00 25 12 Nordeste 23 Este 0 1005 -1.8 87
2018-09-17 15:00:00 24 13 Este 24 Nordeste 0 1005.7 -1.3 93
2018-09-17 14:00:00 23 7 Nordeste 18 Nordeste 0 1006.3 -0.6 95
2018-09-17 13:00:00 22.5 7 Nordeste 17 Nordeste 0 1006.8 0.2 94
2018-09-17 12:00:00 22.7 8 Nordeste 17 Nordeste 0 1007 0.5 96
2018-09-17 11:00:00 22.4 5 Norte 10 Nordeste 0 1006.9 1 98
2018-09-17 10:00:00 22.7 5 Nordeste 19 Este 0 1006.6 1.1 99
2018-09-17 09:00:00 22.9 10 Este 27 Este 0 1006.5 0.8 100
2018-09-17 08:00:00 22.8 12 Este 19 Este 0 1005.9 -0.3 100
2018-09-17 07:00:00 22.6 9 Este 21 Este 0 1005.5 -1.5 100
2018-09-17 06:00:00 21.8 6 Nordeste 15 Este 0 1005.7 -2 100
2018-09-17 05:00:00 22.4 7 Nordeste 20 Este 0 1006.2 -1.3 100
2018-09-17 04:00:00 22.9 10 Este 22 Sudeste 0 1007 -0.6 100
2018-09-17 03:00:00 22.9 12 Este 22 Este 0 1007.7 -0.4 99
2018-09-17 02:00:00 22.8 13 Este 28 Este 0 1007.5 -0.7 98
2018-09-17 01:00:00 22.8 14 Este 22 Este 0 1007.6 -0.4 97
2018-09-17 00:00:00 23.1 13 Este 21 Este 0 1008.1 0.3 95
2018-09-16 23:00:00 23.2 12 Este 19 Este 0 1008.2 0.7 95
2018-09-16 22:00:00 23.3 13 Sudeste 18 Este 0 1008 0.9 96
2018-09-16 21:00:00 23.4 9 Sudeste 17 Sudeste 0 1007.8 0.4 95
2018-09-16 20:00:00 23.6 9 Sudeste 19 Sur 0 1007.5 0.1 93
2018-09-16 19:00:00 24 10 Sudeste 22 Sudeste 0 1007.1 -0.6 88
2018-09-16 18:00:00 24.3 10 Sudeste 26 Sudeste 0 1007.4 -0.8 84
2018-09-16 17:00:00 24.6 14 Este 30 Este 0 1007.4 -1.2 82
2018-09-16 16:00:00 25.1 15 Este 31 Este 0 1007.7 -1.3 79
2018-09-16 15:00:00 24.9 12 Este 27 Nordeste 0 1008.2 -0.9 80
2018-09-16 14:00:00 23.6 15 Nordeste 29 Este 0 1008.6 -0.6 84
2018-09-16 13:00:00 23.2 14 Nordeste 24 Este 0 1009 0 87
2018-09-16 12:00:00 23.2 11 Nordeste 24 Este 0 1009.1 0.4 90
2018-09-16 11:00:00 23.1 13 Nordeste 21 Nordeste 0 1009.2 1 95
2018-09-16 10:00:00 23.2 9 Este 17 Nordeste 0 1009 1 95
2018-09-16 09:00:00 22.2 10 Nordeste 19 Nordeste 0 1008.7 0.7 99
2018-09-16 08:00:00 22.2 11 Nordeste 23 Este 0 1008.2 0.2 100
2018-09-16 07:00:00 22.3 8 Este 20 Este 0 1008 -0.4 100
2018-09-16 06:00:00 21.8 9 Este 19 Nordeste 0 1008 -1 100
2018-09-16 05:00:00 21.7 9 Nordeste 18 Nordeste 0 1008 -1.6 100
2018-09-16 04:00:00 21.6 5 Este 14 Este 0 1008.4 -0.9 100
2018-09-16 03:00:00 21.8 7 Este 19 Este 0 1009 -0.1 99
2018-09-16 02:00:00 22.2 10 Este 18 Este 0 1009.6 0.4 99
2018-09-16 01:00:00 22.4 9 Este 17 Este 0 1009.3 0.4 98
2018-09-16 00:00:00 22.2 6 Nordeste 15 Este 0 1009.1 1.2 97
2018-09-15 23:00:00 22.4 5 Nordeste 14 Nordeste 0 1009.2 1.6 97
2018-09-15 22:00:00 22.3 8 Este 13 Sudeste 0 1008.9 1.8 97
2018-09-15 21:00:00 22.6 10 Sudeste 19 Sudeste 0 1007.9 0.9 93
2018-09-15 20:00:00 23 8 Sudeste 21 Este 0 1007.6 0.6 89
2018-09-15 19:00:00 24.5 12 Sudeste 19 Sudeste 0 1007.1 -0.1 79
2018-09-15 18:00:00 24.8 11 Nordeste 19 Nordeste 0 1007 -0.1 78
2018-09-15 17:00:00 25.7 9 Nordeste 19 Norte 0 1007 -0.6 76
2018-09-15 16:00:00 25.4 8 Norte 17 Este 0 1007.2 -0.6 78
2018-09-15 15:00:00 25.8 8 Nordeste 14 Nordeste 0 1007.1 -1 74
2018-09-15 14:00:00 24.6 10 Nordeste 18 Nordeste 0 1007.6 -0.2 81
2018-09-15 13:00:00 24.7 7 Nordeste 13 Este 0 1007.8 0.5 81
2018-09-15 12:00:00 23.6 9 Nordeste 13 Norte 0 1008.1 1.2 85
2018-09-15 11:00:00 23.4 5 Nordeste 10 Nordeste 0 1007.8 1.5 91
2018-09-15 10:00:00 22 3 Oeste 6 Sudoeste 0 1007.3 1.1 89
2018-09-15 09:00:00 21 3 Sudoeste 7 Oeste 0 1006.9 1 93
2018-09-15 08:00:00 21.1 4 Sudoeste 9 Sudoeste 0 1006.3 0.5 95
2018-09-15 07:00:00 21.3 4 Sudoeste 8 Sur 0 1006.2 -0.3 96
2018-09-15 06:00:00 21.4 4 Sur 13 Sudoeste 0 1005.9 -0.7 97
2018-09-15 05:00:00 21.2 7 Sur 10 Sur 0 1005.8 -1.2 97
2018-09-15 04:00:00 21.4 5 Sudoeste 9 Sur 0 1006.5 -0.9 96
2018-09-15 03:00:00 21.5 4 Norte 9 Norte 0 1006.6 -1.3 96
2018-09-15 02:00:00 21.7 5 Norte 9 Norte 0 1007 -0.6 96
2018-09-15 01:00:00 21.7 5 Noroeste 9 Noroeste 0 1007.4 0.2 98
2018-09-15 00:00:00 21.6 3 Norte 10 Norte 0 1007.9 1.3 100